Time;durP1;ratioP1;P1;durP2;ratioP2;P2;SDS_P1;SDS_P2;PMS_P1;PMS_P2;Temp;Humidity;BMP_temperature;BMP_pressure;BME280_temperature;BME280_humidity;BME280_pressure;Samples;Min_cycle;Max_cycle;Signal;HPM_P1;HPM_P2
2021/11/27 00:00:39;;;;;;;14.88;9.07;;;;;;;;;;5029209;28;20029;-68
2021/11/27 00:03:05;;;;;;;15.88;8.90;;;;;;;;;;5025962;28;20036;-69
2021/11/27 00:05:32;;;;;;;15.30;9.13;;;;;;;;;;5024085;28;20025;-70
2021/11/27 00:07:58;;;;;;;14.63;9.05;;;;;;;;;;5021441;28;20049;-71
2021/11/27 00:10:24;;;;;;;14.10;7.97;;;;;;;;;;5026106;28;20139;-70
2021/11/27 00:12:50;;;;;;;14.23;8.10;;;;;;;;;;5025702;28;20405;-72
2021/11/27 00:15:17;;;;;;;13.50;8.57;;;;;;;;;;5030026;28;20139;-71
2021/11/27 00:17:42;;;;;;;14.25;8.05;;;;;;;;;;5025104;28;20057;-69
2021/11/27 00:20:10;;;;;;;13.48;7.85;;;;;;;;;;5029834;28;20028;-71
2021/11/27 00:22:35;;;;;;;12.23;7.45;;;;;;;;;;5028736;28;20079;-71
2021/11/27 00:25:01;;;;;;;13.32;7.93;;;;;;;;;;5028743;28;20393;-71
2021/11/27 00:27:26;;;;;;;12.32;7.03;;;;;;;;;;5026637;28;20028;-71
2021/11/27 00:29:52;;;;;;;12.52;7.63;;;;;;;;;;5027427;28;20125;-71
2021/11/27 00:32:17;;;;;;;12.40;7.20;;;;;;;;;;5023885;28;20026;-70
2021/11/27 00:34:43;;;;;;;10.88;6.80;;;;;;;;;;5028456;28;20068;-70
2021/11/27 00:37:08;;;;;;;11.55;6.70;;;;;;;;;;5026980;28;20631;-72
2021/11/27 00:39:33;;;;;;;13.07;7.00;;;;;;;;;;5023903;28;20044;-70
2021/11/27 00:41:58;;;;;;;11.65;6.65;;;;;;;;;;5025205;28;20473;-70
2021/11/27 00:44:24;;;;;;;13.27;7.03;;;;;;;;;;5027074;28;20037;-69
2021/11/27 00:46:50;;;;;;;12.57;6.53;;;;;;;;;;5026977;28;20108;-71
2021/11/27 00:49:15;;;;;;;10.75;6.60;;;;;;;;;;5024670;28;20817;-70
2021/11/27 00:51:41;;;;;;;11.32;6.60;;;;;;;;;;5023333;28;20025;-72
2021/11/27 00:54:06;;;;;;;11.18;6.85;;;;;;;;;;5025482;28;20125;-72
2021/11/27 00:56:32;;;;;;;11.75;7.28;;;;;;;;;;5028824;28;20108;-70
2021/11/27 00:58:57;;;;;;;12.40;6.97;;;;;;;;;;5025177;28;20473;-71
2021/11/27 01:01:25;;;;;;;12.60;6.60;;;;;;;;;;5027448;28;20021;-70
2021/11/27 01:03:51;;;;;;;12.27;6.82;;;;;;;;;;5028109;28;20095;-71
2021/11/27 01:06:20;;;;;;;9.95;5.93;;;;;;;;;;5015544;28;21014;-70
2021/11/27 01:08:45;;;;;;;11.02;5.95;;;;;;;;;;5024999;28;20029;-70
2021/11/27 01:11:13;;;;;;;11.30;6.03;;;;;;;;;;5024159;28;20025;-70
2021/11/27 01:13:38;;;;;;;9.00;5.50;;;;;;;;;;5027134;28;20099;-70
2021/11/27 01:16:04;;;;;;;9.38;4.88;;;;;;;;;;5027360;28;20602;-70
2021/11/27 01:18:30;;;;;;;9.10;5.25;;;;;;;;;;5027599;28;20125;-70
2021/11/27 01:20:57;;;;;;;8.57;5.13;;;;;;;;;;5027144;28;20193;-71
2021/11/27 01:23:23;;;;;;;9.43;5.55;;;;;;;;;;5022697;28;20025;-71
2021/11/27 01:25:48;;;;;;;9.40;5.50;;;;;;;;;;5026431;28;20022;-71
2021/11/27 01:28:15;;;;;;;8.10;4.95;;;;;;;;;;5026066;28;20021;-71
2021/11/27 01:30:41;;;;;;;8.48;4.68;;;;;;;;;;5029280;28;20032;-71
2021/11/27 01:33:07;;;;;;;9.13;4.90;;;;;;;;;;5020734;28;20489;-71
2021/11/27 01:35:32;;;;;;;7.60;4.35;;;;;;;;;;5027281;28;20075;-70
2021/11/27 01:37:57;;;;;;;7.57;4.50;;;;;;;;;;5027239;28;20120;-70
2021/11/27 01:40:24;;;;;;;7.60;4.40;;;;;;;;;;5027649;28;20028;-71
2021/11/27 01:42:49;;;;;;;7.32;4.55;;;;;;;;;;5025574;28;20029;-71
2021/11/27 01:45:16;;;;;;;7.85;4.35;;;;;;;;;;5019467;28;20462;-71
2021/11/27 01:47:45;;;;;;;9.65;4.95;;;;;;;;;;5027213;28;20476;-70
2021/11/27 01:50:10;;;;;;;7.18;4.55;;;;;;;;;;5027110;28;20658;-70
2021/11/27 01:52:36;;;;;;;6.63;4.20;;;;;;;;;;5021865;28;20046;-71
2021/11/27 01:55:03;;;;;;;6.53;3.92;;;;;;;;;;5018424;28;20542;-71
2021/11/27 01:57:28;;;;;;;6.97;4.00;;;;;;;;;;5027089;28;20849;-70
2021/11/27 01:59:53;;;;;;;6.50;3.83;;;;;;;;;;5024385;28;20021;-71
2021/11/27 02:02:18;;;;;;;8.10;4.47;;;;;;;;;;5021699;28;20794;-71
2021/11/27 02:04:44;;;;;;;9.25;5.22;;;;;;;;;;5014534;28;20461;-71
2021/11/27 02:07:09;;;;;;;9.15;4.90;;;;;;;;;;5021181;28;20506;-71
2021/11/27 02:09:35;;;;;;;8.23;4.00;;;;;;;;;;5020304;28;20018;-73
2021/11/27 02:12:01;;;;;;;5.97;3.63;;;;;;;;;;5026579;28;20040;-70
2021/11/27 02:14:27;;;;;;;5.57;3.58;;;;;;;;;;5022644;28;20091;-71
2021/11/27 02:16:52;;;;;;;6.88;3.72;;;;;;;;;;5023712;28;20481;-71
2021/11/27 02:19:18;;;;;;;6.70;3.35;;;;;;;;;;5024707;28;20034;-71
2021/11/27 02:21:46;;;;;;;5.97;3.28;;;;;;;;;;5022790;28;20465;-69
2021/11/27 02:24:12;;;;;;;5.28;3.42;;;;;;;;;;5024513;28;20116;-70
2021/11/27 02:26:38;;;;;;;5.75;3.08;;;;;;;;;;5019968;28;20053;-71
2021/11/27 02:29:05;;;;;;;6.47;3.28;;;;;;;;;;5026597;28;20107;-72
2021/11/27 02:31:30;;;;;;;5.30;2.90;;;;;;;;;;5030081;28;20040;-71
2021/11/27 02:33:56;;;;;;;4.55;3.13;;;;;;;;;;5022706;28;20030;-71
2021/11/27 02:36:22;;;;;;;5.75;3.40;;;;;;;;;;5026657;28;20033;-71
2021/11/27 02:38:47;;;;;;;5.60;3.15;;;;;;;;;;5027536;28;20030;-70
2021/11/27 02:41:13;;;;;;;5.78;3.42;;;;;;;;;;5028781;28;20032;-69
2021/11/27 02:43:38;;;;;;;5.10;3.40;;;;;;;;;;5027316;28;20025;-70
2021/11/27 02:46:04;;;;;;;5.57;3.03;;;;;;;;;;5027566;28;20072;-70
2021/11/27 02:48:29;;;;;;;4.97;3.13;;;;;;;;;;5030200;28;20116;-71
2021/11/27 02:50:54;;;;;;;5.18;2.80;;;;;;;;;;5027914;28;20447;-71
2021/11/27 02:53:20;;;;;;;5.10;2.92;;;;;;;;;;5026979;28;20089;-72
2021/11/27 02:55:45;;;;;;;5.68;2.95;;;;;;;;;;5029092;28;20024;-70
2021/11/27 02:58:10;;;;;;;6.57;3.28;;;;;;;;;;5021943;28;20041;-70
2021/11/27 03:00:35;;;;;;;5.18;2.83;;;;;;;;;;5031932;28;20041;-71
2021/11/27 03:03:01;;;;;;;5.40;3.08;;;;;;;;;;5027695;28;20128;-71
2021/11/27 03:05:26;;;;;;;5.18;2.78;;;;;;;;;;5027661;28;20029;-71
2021/11/27 03:07:51;;;;;;;4.50;2.70;;;;;;;;;;5026751;28;20054;-71
2021/11/27 03:10:17;;;;;;;4.25;2.70;;;;;;;;;;5029679;28;20017;-72
2021/11/27 03:12:42;;;;;;;4.82;2.60;;;;;;;;;;5029592;28;20281;-69
2021/11/27 03:15:09;;;;;;;4.03;2.53;;;;;;;;;;5029898;28;20025;-70
2021/11/27 03:17:34;;;;;;;5.40;2.90;;;;;;;;;;5023476;28;20382;-70
2021/11/27 03:20:00;;;;;;;3.80;2.25;;;;;;;;;;5026776;28;20029;-71
2021/11/27 03:22:25;;;;;;;5.05;2.40;;;;;;;;;;5030215;28;20100;-71
2021/11/27 03:24:50;;;;;;;3.92;2.63;;;;;;;;;;5026922;28;20108;-70
2021/11/27 03:27:16;;;;;;;4.07;2.55;;;;;;;;;;5024260;28;20041;-70
2021/11/27 03:29:41;;;;;;;4.05;2.30;;;;;;;;;;5025745;28;20029;-70
2021/11/27 03:32:09;;;;;;;3.45;2.50;;;;;;;;;;5027913;28;20371;-70
2021/11/27 03:34:34;;;;;;;3.55;2.28;;;;;;;;;;5023988;28;20421;-71
2021/11/27 03:37:00;;;;;;;4.25;2.33;;;;;;;;;;5029377;28;20041;-71
2021/11/27 03:39:25;;;;;;;4.38;2.72;;;;;;;;;;5029614;28;20044;-70
2021/11/27 03:41:50;;;;;;;3.90;2.50;;;;;;;;;;5027163;28;20041;-70
2021/11/27 03:44:15;;;;;;;4.25;2.50;;;;;;;;;;5023304;28;20033;-70
2021/11/27 03:46:41;;;;;;;4.38;2.70;;;;;;;;;;5025257;28;20442;-70
2021/11/27 03:49:06;;;;;;;4.85;2.63;;;;;;;;;;5025781;28;20052;-70
2021/11/27 03:51:31;;;;;;;4.30;2.45;;;;;;;;;;5029730;28;20060;-74
2021/11/27 03:53:57;;;;;;;3.75;2.42;;;;;;;;;;5021042;28;20045;-69
2021/11/27 03:56:26;;;;;;;4.15;2.60;;;;;;;;;;5021830;28;20033;-71
2021/11/27 03:58:51;;;;;;;;;;;;;;;;;;5027956;28;20033;-70
2021/11/27 04:01:17;;;;;;;4.38;2.70;;;;;;;;;;5022731;28;19913;-70
2021/11/27 04:03:44;;;;;;;4.38;2.90;;;;;;;;;;5031728;28;20390;-71
2021/11/27 04:06:09;;;;;;;4.35;2.80;;;;;;;;;;5028599;28;20056;-71
2021/11/27 04:08:35;;;;;;;5.05;3.10;;;;;;;;;;5027402;28;20473;-72
2021/11/27 04:11:00;;;;;;;4.00;2.70;;;;;;;;;;5022060;28;20029;-70
2021/11/27 04:13:25;;;;;;;5.50;3.13;;;;;;;;;;5012640;28;20044;-70
2021/11/27 04:15:51;;;;;;;5.53;3.53;;;;;;;;;;5029750;28;20022;-70
2021/11/27 04:18:16;;;;;;;6.53;3.90;;;;;;;;;;5026498;28;20100;-71
2021/11/27 04:20:41;;;;;;;5.82;3.88;;;;;;;;;;5028667;28;20025;-71
2021/11/27 04:23:07;;;;;;;5.70;3.75;;;;;;;;;;5028295;28;20040;-71
2021/11/27 04:25:33;;;;;;;5.90;3.97;;;;;;;;;;5028694;28;20091;-71
2021/11/27 04:27:58;;;;;;;6.05;3.88;;;;;;;;;;5028933;28;20033;-70
2021/11/27 04:30:25;;;;;;;6.30;4.25;;;;;;;;;;5027751;28;20029;-70
2021/11/27 04:32:50;;;;;;;5.88;4.00;;;;;;;;;;5022984;28;20042;-71
2021/11/27 04:35:16;;;;;;;5.90;3.90;;;;;;;;;;5021606;28;20535;-71
2021/11/27 04:37:42;;;;;;;6.63;4.05;;;;;;;;;;5023285;28;20052;-71
2021/11/27 04:40:07;;;;;;;7.07;4.47;;;;;;;;;;5019553;28;20096;-70
2021/11/27 04:42:33;;;;;;;7.05;4.28;;;;;;;;;;5023790;28;20037;-70
2021/11/27 04:44:58;;;;;;;7.13;4.03;;;;;;;;;;5026180;28;20040;-70
2021/11/27 04:47:24;;;;;;;6.85;4.20;;;;;;;;;;5026872;28;20029;-70
2021/11/27 04:49:49;;;;;;;8.45;4.75;;;;;;;;;;5027598;28;20028;-70
2021/11/27 04:52:14;;;;;;;6.68;4.38;;;;;;;;;;5024751;28;20396;-70
2021/11/27 04:54:40;;;;;;;6.50;4.40;;;;;;;;;;5019122;28;20567;-71
2021/11/27 04:57:05;;;;;;;6.07;4.15;;;;;;;;;;5020543;28;20017;-70
2021/11/27 04:59:30;;;;;;;6.95;4.57;;;;;;;;;;5025442;28;20029;-70
2021/11/27 05:01:56;;;;;;;7.05;4.60;;;;;;;;;;5029537;28;20493;-70
2021/11/27 05:04:21;;;;;;;7.85;4.75;;;;;;;;;;5028484;28;20029;-70
2021/11/27 05:06:46;;;;;;;6.95;4.13;;;;;;;;;;5026817;28;20069;-70
2021/11/27 05:09:11;;;;;;;6.63;4.35;;;;;;;;;;5026963;28;20017;-70
2021/11/27 05:11:37;;;;;;;7.00;4.47;;;;;;;;;;5019801;28;20025;-70
2021/11/27 05:14:02;;;;;;;7.50;4.90;;;;;;;;;;5028450;28;20094;-70
2021/11/27 05:16:28;;;;;;;7.72;4.78;;;;;;;;;;5029811;28;20422;-70
2021/11/27 05:18:53;;;;;;;6.93;4.22;;;;;;;;;;5027541;28;20199;-70
2021/11/27 05:21:19;;;;;;;6.88;4.47;;;;;;;;;;5028157;28;20112;-71
2021/11/27 05:23:44;;;;;;;7.38;4.57;;;;;;;;;;5026548;28;20056;-70
2021/11/27 05:26:09;;;;;;;8.23;4.60;;;;;;;;;;5025159;28;20065;-71
2021/11/27 05:28:34;;;;;;;7.65;4.80;;;;;;;;;;5026539;28;20495;-70
2021/11/27 05:31:00;;;;;;;7.07;4.68;;;;;;;;;;5026614;28;20021;-69
2021/11/27 05:33:47;;;;;;;9.73;5.50;;;;;;;;;;5022076;28;20044;-69
2021/11/27 05:36:12;;;;;;;8.43;4.53;;;;;;;;;;5024933;28;20029;-71
2021/11/27 05:38:38;;;;;;;8.32;5.30;;;;;;;;;;5019762;28;20363;-70
2021/11/27 05:41:03;;;;;;;7.68;5.05;;;;;;;;;;5027671;28;20026;-70
2021/11/27 05:43:28;;;;;;;8.23;5.10;;;;;;;;;;5026444;28;20038;-70
2021/11/27 05:45:54;;;;;;;10.82;5.10;;;;;;;;;;5027294;28;20525;-70
2021/11/27 05:48:19;;;;;;;7.95;4.90;;;;;;;;;;5027755;28;20021;-71
2021/11/27 05:50:44;;;;;;;8.40;4.93;;;;;;;;;;5020909;28;20380;-70
2021/11/27 05:53:10;;;;;;;7.18;4.65;;;;;;;;;;5027187;28;20068;-70
2021/11/27 05:55:35;;;;;;;8.90;5.60;;;;;;;;;;5023818;28;20053;-71
2021/11/27 05:58:00;;;;;;;9.07;4.90;;;;;;;;;;5021575;28;20059;-71
2021/11/27 06:00:26;;;;;;;7.38;4.95;;;;;;;;;;5025367;28;20333;-70
2021/11/27 06:02:52;;;;;;;9.95;5.60;;;;;;;;;;5015313;28;20087;-71
2021/11/27 06:05:17;;;;;;;7.28;4.72;;;;;;;;;;5019863;28;20029;-70
2021/11/27 06:07:42;;;;;;;9.40;5.80;;;;;;;;;;5025685;28;20472;-69
2021/11/27 06:10:08;;;;;;;8.93;5.50;;;;;;;;;;5027251;28;20064;-70
2021/11/27 06:12:33;;;;;;;7.20;4.55;;;;;;;;;;5029695;28;20487;-70
2021/11/27 06:14:58;;;;;;;8.32;5.20;;;;;;;;;;5028750;28;20736;-70
2021/11/27 06:17:24;;;;;;;9.73;5.25;;;;;;;;;;5017645;28;20014;-70
2021/11/27 06:19:49;;;;;;;7.88;5.22;;;;;;;;;;5014303;28;20030;-70
2021/11/27 06:22:16;;;;;;;8.50;5.38;;;;;;;;;;5021921;28;20108;-70
2021/11/27 06:24:41;;;;;;;7.93;5.18;;;;;;;;;;5021195;28;20036;-70
2021/11/27 06:27:06;;;;;;;8.65;5.32;;;;;;;;;;5020003;28;20021;-70
2021/11/27 06:29:32;;;;;;;7.95;5.43;;;;;;;;;;5023777;28;20489;-69
2021/11/27 06:31:58;;;;;;;7.97;4.82;;;;;;;;;;5020950;28;20116;-70
2021/11/27 06:34:23;;;;;;;8.20;5.45;;;;;;;;;;5022343;28;20037;-71
2021/11/27 06:36:49;;;;;;;7.80;5.10;;;;;;;;;;5015992;28;20061;-69
2021/11/27 06:39:14;;;;;;;6.63;4.30;;;;;;;;;;5021340;28;20043;-71
2021/11/27 06:41:39;;;;;;;7.03;4.80;;;;;;;;;;5016922;28;20384;-71
2021/11/27 06:44:04;;;;;;;6.75;4.60;;;;;;;;;;5019671;28;20022;-71
2021/11/27 06:46:30;;;;;;;7.82;5.03;;;;;;;;;;5025009;28;20044;-71
2021/11/27 06:48:55;;;;;;;7.35;5.10;;;;;;;;;;5022395;28;20028;-71
2021/11/27 06:51:20;;;;;;;8.05;5.50;;;;;;;;;;5017953;28;20057;-71
2021/11/27 06:53:45;;;;;;;7.90;5.28;;;;;;;;;;5018881;28;20037;-70
2021/11/27 06:56:10;;;;;;;9.02;5.70;;;;;;;;;;5014303;28;20025;-71
2021/11/27 06:58:36;;;;;;;7.72;5.13;;;;;;;;;;5020386;28;20055;-70
2021/11/27 07:01:01;;;;;;;8.07;5.28;;;;;;;;;;5022059;28;20024;-71
2021/11/27 07:03:26;;;;;;;8.93;5.45;;;;;;;;;;5026886;28;20044;-70
2021/11/27 07:05:52;;;;;;;7.60;5.00;;;;;;;;;;5028679;28;20440;-70
2021/11/27 07:08:17;;;;;;;7.28;4.88;;;;;;;;;;5028896;28;20061;-70
2021/11/27 07:10:45;;;;;;;7.72;5.03;;;;;;;;;;5026413;28;20120;-71
2021/11/27 07:13:10;;;;;;;9.18;5.47;;;;;;;;;;5024396;28;20052;-72
2021/11/27 07:15:36;;;;;;;8.23;5.35;;;;;;;;;;5024390;28;20026;-70
2021/11/27 07:18:01;;;;;;;7.93;5.18;;;;;;;;;;5024697;28;20029;-71
2021/11/27 07:20:27;;;;;;;6.88;4.80;;;;;;;;;;5033947;28;20104;-71
2021/11/27 07:22:52;;;;;;;7.50;5.03;;;;;;;;;;5029564;28;20040;-70
2021/11/27 07:25:17;;;;;;;9.55;4.82;;;;;;;;;;5024801;28;20026;-69
2021/11/27 07:27:42;;;;;;;8.30;5.00;;;;;;;;;;5022958;28;20465;-70
2021/11/27 07:30:08;;;;;;;8.38;5.55;;;;;;;;;;5029399;28;20433;-70
2021/11/27 07:32:34;;;;;;;7.57;5.00;;;;;;;;;;5026377;28;20033;-70
2021/11/27 07:34:59;;;;;;;9.95;5.40;;;;;;;;;;5030554;28;20029;-71
2021/11/27 07:37:24;;;;;;;9.32;5.53;;;;;;;;;;5022025;28;20021;-71
2021/11/27 07:39:50;;;;;;;8.77;5.38;;;;;;;;;;5026147;28;20052;-71
2021/11/27 07:42:15;;;;;;;9.57;5.72;;;;;;;;;;5029569;28;20028;-70
2021/11/27 07:44:40;;;;;;;11.02;5.85;;;;;;;;;;5029668;28;20469;-71
2021/11/27 07:47:05;;;;;;;7.90;4.93;;;;;;;;;;5026147;28;20518;-71
2021/11/27 07:49:31;;;;;;;8.40;5.40;;;;;;;;;;5021108;28;20762;-71
2021/11/27 07:51:56;;;;;;;10.35;6.07;;;;;;;;;;5028464;28;20025;-71
2021/11/27 07:54:21;;;;;;;7.25;4.90;;;;;;;;;;5029386;28;20041;-70
2021/11/27 07:56:47;;;;;;;7.10;5.13;;;;;;;;;;5028432;28;20769;-71
2021/11/27 07:59:13;;;;;;;8.80;5.40;;;;;;;;;;5028336;28;20060;-71
2021/11/27 08:01:38;;;;;;;7.90;5.47;;;;;;;;;;5026944;28;20473;-70
2021/11/27 08:04:03;;;;;;;7.45;4.88;;;;;;;;;;5019544;28;20029;-71
2021/11/27 08:06:29;;;;;;;8.30;4.90;;;;;;;;;;5027916;28;20041;-70
2021/11/27 08:08:54;;;;;;;9.07;5.00;;;;;;;;;;5023024;28;20028;-70
2021/11/27 08:11:20;;;;;;;6.88;4.65;;;;;;;;;;5023639;28;20018;-70
2021/11/27 08:13:47;;;;;;;8.60;5.10;;;;;;;;;;5026119;28;20401;-70
2021/11/27 08:16:13;;;;;;;11.82;6.60;;;;;;;;;;5021810;28;20021;-71
2021/11/27 08:18:38;;;;;;;9.77;5.72;;;;;;;;;;5024211;28;20025;-71
2021/11/27 08:21:04;;;;;;;7.63;5.15;;;;;;;;;;5030522;28;20036;-70
2021/11/27 08:23:29;;;;;;;7.13;4.75;;;;;;;;;;5027190;28;20131;-71
2021/11/27 08:25:54;;;;;;;8.02;4.90;;;;;;;;;;5025033;28;20116;-70
2021/11/27 08:28:20;;;;;;;10.18;5.80;;;;;;;;;;5019762;28;20021;-71
2021/11/27 08:30:45;;;;;;;7.38;4.75;;;;;;;;;;5029386;28;20018;-71
2021/11/27 08:33:10;;;;;;;7.80;5.07;;;;;;;;;;5022554;28;20033;-71
2021/11/27 08:35:35;;;;;;;8.13;4.60;;;;;;;;;;5028592;28;20499;-70
2021/11/27 08:38:01;;;;;;;7.80;5.03;;;;;;;;;;5021987;28;20021;-70
2021/11/27 08:40:26;;;;;;;7.40;4.80;;;;;;;;;;5028614;28;20029;-70
2021/11/27 08:42:52;;;;;;;6.57;4.20;;;;;;;;;;5025366;28;20033;-70
2021/11/27 08:45:17;;;;;;;7.22;4.63;;;;;;;;;;5025477;28;20030;-70
2021/11/27 08:47:43;;;;;;;7.47;4.85;;;;;;;;;;5026553;28;20026;-71
2021/11/27 08:50:09;;;;;;;7.75;4.95;;;;;;;;;;5028474;28;20025;-71
2021/11/27 08:52:34;;;;;;;8.52;5.18;;;;;;;;;;5028174;28;20080;-71
2021/11/27 08:54:59;;;;;;;8.20;4.80;;;;;;;;;;5027558;28;20055;-70
2021/11/27 08:57:25;;;;;;;8.43;4.70;;;;;;;;;;5022295;28;20017;-70
2021/11/27 08:59:50;;;;;;;7.93;4.75;;;;;;;;;;5028140;28;20100;-72
2021/11/27 09:02:16;;;;;;;10.38;5.72;;;;;;;;;;5026856;28;20025;-72
2021/11/27 09:04:41;;;;;;;7.85;5.22;;;;;;;;;;5020940;28;20026;-71
2021/11/27 09:07:06;;;;;;;8.23;5.55;;;;;;;;;;5022680;28;20044;-70
2021/11/27 09:09:32;;;;;;;8.45;5.30;;;;;;;;;;5024011;28;20036;-70
2021/11/27 09:11:58;;;;;;;8.50;5.45;;;;;;;;;;5028518;28;20177;-70
2021/11/27 09:14:23;;;;;;;8.23;5.35;;;;;;;;;;5028140;28;20164;-71
2021/11/27 09:16:51;;;;;;;8.57;5.28;;;;;;;;;;5027854;28;20022;-71
2021/11/27 09:19:16;;;;;;;7.63;5.25;;;;;;;;;;5017124;28;20052;-71
2021/11/27 09:21:41;;;;;;;6.65;4.18;;;;;;;;;;5028218;28;20462;-70
2021/11/27 09:24:07;;;;;;;8.68;4.43;;;;;;;;;;5028662;28;20025;-72
2021/11/27 09:26:34;;;;;;;6.40;4.20;;;;;;;;;;5029035;28;20033;-70
2021/11/27 09:28:59;;;;;;;5.82;3.80;;;;;;;;;;5021410;28;20442;-70
2021/11/27 09:31:24;;;;;;;6.68;3.80;;;;;;;;;;5034130;28;20029;-71
2021/11/27 09:33:50;;;;;;;5.72;3.70;;;;;;;;;;5028433;28;20477;-72
2021/11/27 09:36:16;;;;;;;6.88;3.78;;;;;;;;;;5025756;28;20028;-72
2021/11/27 09:38:43;;;;;;;8.25;3.97;;;;;;;;;;5028198;28;20151;-70
2021/11/27 09:41:18;;;;;;;6.47;3.50;;;;;;;;;;5028148;28;20040;-72
2021/11/27 09:43:44;;;;;;;5.50;3.72;;;;;;;;;;5030967;28;20473;-71
2021/11/27 09:46:10;;;;;;;7.90;4.30;;;;;;;;;;5031103;28;20026;-63
2021/11/27 09:48:40;;;;;;;6.60;4.30;;;;;;;;;;5031857;28;20396;-61
2021/11/27 09:51:05;;;;;;;;;;;;;;;;;;5032585;28;20040;-62
2021/11/27 09:53:30;;;;;;;6.38;3.75;;;;;;;;;;5026342;28;19917;-62
2021/11/27 09:55:56;;;;;;;6.53;3.70;;;;;;;;;;5030725;28;20287;-62
2021/11/27 09:58:21;;;;;;;5.75;3.53;;;;;;;;;;5032956;28;20108;-62
2021/11/27 10:00:47;;;;;;;5.97;4.03;;;;;;;;;;5033554;28;20519;-62
2021/11/27 10:03:12;;;;;;;6.43;3.72;;;;;;;;;;5027066;28;20065;-62
2021/11/27 10:05:38;;;;;;;6.57;3.70;;;;;;;;;;5031779;28;20430;-61
2021/11/27 10:08:03;;;;;;;6.40;3.45;;;;;;;;;;5028722;28;20513;-62
2021/11/27 10:10:29;;;;;;;5.68;3.60;;;;;;;;;;5025454;28;20108;-64
2021/11/27 10:12:54;;;;;;;6.05;3.20;;;;;;;;;;5031342;28;20033;-62
2021/11/27 10:15:19;;;;;;;6.82;3.50;;;;;;;;;;5027050;28;20044;-62
2021/11/27 10:17:45;;;;;;;8.00;3.80;;;;;;;;;;5024743;28;20068;-62
2021/11/27 10:20:11;;;;;;;6.78;3.60;;;;;;;;;;5021847;28;20036;-62
2021/11/27 10:22:36;;;;;;;7.30;3.58;;;;;;;;;;5019193;28;20018;-62
2021/11/27 10:25:01;;;;;;;6.72;3.85;;;;;;;;;;5031789;28;20064;-62
2021/11/27 10:27:27;;;;;;;7.13;4.00;;;;;;;;;;5030487;28;20051;-62
2021/11/27 10:29:59;;;;;;;6.28;3.00;;;;;;;;;;5027371;28;20107;-62
2021/11/27 10:32:29;;;;;;;6.45;3.15;;;;;;;;;;5024755;28;20049;-64
2021/11/27 10:34:55;;;;;;;6.18;3.25;;;;;;;;;;5027646;28;20101;-61
2021/11/27 10:37:23;;;;;;;9.48;3.88;;;;;;;;;;5023343;28;20121;-62
2021/11/27 10:39:59;;;;;;;7.32;4.07;;;;;;;;;;5030948;28;20097;-62
2021/11/27 10:42:24;;;;;;;7.85;3.50;;;;;;;;;;5031056;28;20033;-62
2021/11/27 10:44:51;;;;;;;6.03;3.15;;;;;;;;;;5030246;28;20022;-62
2021/11/27 10:47:17;;;;;;;5.65;3.17;;;;;;;;;;5029761;28;20025;-62
2021/11/27 10:49:44;;;;;;;4.47;3.00;;;;;;;;;;5030972;28;20029;-62
2021/11/27 10:52:11;;;;;;;6.40;3.53;;;;;;;;;;5025091;28;20539;-63
2021/11/27 10:54:42;;;;;;;7.53;2.72;;;;;;;;;;5028959;28;20029;-61
2021/11/27 10:57:07;;;;;;;5.38;2.90;;;;;;;;;;5029061;28;20029;-62
2021/11/27 10:59:38;;;;;;;6.07;3.00;;;;;;;;;;5030633;28;20108;-62
2021/11/27 11:02:07;;;;;;;11.50;3.30;;;;;;;;;;5023826;28;20029;-62
2021/11/27 11:04:33;;;;;;;5.55;3.50;;;;;;;;;;5025087;28;20034;-62
2021/11/27 11:07:16;;;;;;;10.65;5.30;;;;;;;;;;5021435;28;20386;-62
2021/11/27 11:09:59;;;;;;;8.05;3.40;;;;;;;;;;5021549;28;20025;-61
2021/11/27 11:12:31;;;;;;;6.18;3.50;;;;;;;;;;5028856;28;20161;-63
2021/11/27 11:15:11;;;;;;;5.53;3.55;;;;;;;;;;5024174;28;20501;-62
2021/11/27 11:17:36;;;;;;;7.25;3.67;;;;;;;;;;5029997;28;20067;-61
2021/11/27 11:20:21;;;;;;;7.75;4.07;;;;;;;;;;5026456;28;20138;-62
2021/11/27 11:23:06;;;;;;;5.28;3.35;;;;;;;;;;5026559;28;20029;-62
2021/11/27 11:25:35;;;;;;;6.85;3.60;;;;;;;;;;5017630;28;20029;-62
2021/11/27 11:28:09;;;;;;;4.95;3.53;;;;;;;;;;5024594;28;20042;-62
2021/11/27 11:30:36;;;;;;;8.02;4.20;;;;;;;;;;5027031;28;20040;-61
2021/11/27 11:33:01;;;;;;;5.30;3.53;;;;;;;;;;5027401;28;20034;-61
2021/11/27 11:35:26;;;;;;;4.95;3.25;;;;;;;;;;5021216;28;20029;-62
2021/11/27 11:37:52;;;;;;;6.18;3.80;;;;;;;;;;5024073;28;20032;-62
2021/11/27 11:40:17;;;;;;;5.55;3.03;;;;;;;;;;5028611;28;20021;-64
2021/11/27 11:42:43;;;;;;;6.72;3.78;;;;;;;;;;5028204;28;20480;-62
2021/11/27 11:45:08;;;;;;;5.60;3.70;;;;;;;;;;5023017;28;20428;-63
2021/11/27 11:47:33;;;;;;;6.60;3.78;;;;;;;;;;5027835;28;20112;-66
2021/11/27 11:50:00;;;;;;;6.15;4.30;;;;;;;;;;5026949;28;20029;-62
2021/11/27 11:52:33;;;;;;;6.32;3.60;;;;;;;;;;5018825;28;20052;-61
2021/11/27 11:55:04;;;;;;;7.22;3.83;;;;;;;;;;5026985;28;20041;-61
2021/11/27 11:57:48;;;;;;;6.63;3.80;;;;;;;;;;5025625;28;20115;-61
2021/11/27 12:00:19;;;;;;;6.97;3.58;;;;;;;;;;5027323;28;20537;-62
2021/11/27 12:02:45;;;;;;;5.88;3.60;;;;;;;;;;5029992;28;20018;-61
2021/11/27 12:05:15;;;;;;;5.82;3.63;;;;;;;;;;5026299;28;20017;-61
2021/11/27 12:07:40;;;;;;;;;;;;;;;;;;5022205;28;20053;-61
2021/11/27 12:10:18;;;;;;;6.13;3.45;;;;;;;;;;5033052;28;19913;-62
2021/11/27 12:12:45;;;;;;;5.70;3.67;;;;;;;;;;5029869;28;20288;-61
2021/11/27 12:15:11;;;;;;;6.82;3.55;;;;;;;;;;5022120;28;20052;-62
2021/11/27 12:17:56;;;;;;;7.32;3.38;;;;;;;;;;5029245;28;20030;-61
2021/11/27 12:20:21;;;;;;;5.75;3.17;;;;;;;;;;5025790;28;20112;-61
2021/11/27 12:22:46;;;;;;;4.82;3.30;;;;;;;;;;5024921;28;20101;-62
2021/11/27 12:25:11;;;;;;;5.10;3.25;;;;;;;;;;5024731;28;20095;-62
2021/11/27 12:27:55;;;;;;;5.35;2.90;;;;;;;;;;5028118;28;20068;-63
2021/11/27 12:30:21;;;;;;;4.90;3.20;;;;;;;;;;5022438;28;20104;-62
2021/11/27 12:32:46;;;;;;;4.53;2.78;;;;;;;;;;5026906;28;20557;-61
2021/11/27 12:35:27;;;;;;;6.60;3.03;;;;;;;;;;5021447;28;20028;-62
2021/11/27 12:38:15;;;;;;;8.43;3.50;;;;;;;;;;5027395;28;20306;-61
2021/11/27 12:40:46;;;;;;;7.35;3.10;;;;;;;;;;5028076;28;20029;-62
2021/11/27 12:43:12;;;;;;;5.13;2.90;;;;;;;;;;5029484;28;20032;-62
2021/11/27 12:45:38;;;;;;;5.55;3.17;;;;;;;;;;5026025;28;20135;-62
2021/11/27 12:48:22;;;;;;;6.25;3.17;;;;;;;;;;5028706;28;20025;-61
2021/11/27 12:51:07;;;;;;;4.85;2.90;;;;;;;;;;5025578;28;20206;-62
2021/11/27 12:53:32;;;;;;;4.55;2.80;;;;;;;;;;5024763;28;20437;-62
2021/11/27 12:55:59;;;;;;;3.42;1.90;;;;;;;;;;5027920;28;20041;-63
2021/11/27 12:58:27;;;;;;;3.75;2.05;;;;;;;;;;5028977;28;20108;-62
2021/11/27 13:00:52;;;;;;;2.78;1.67;;;;;;;;;;5030846;28;20164;-62
2021/11/27 13:03:18;;;;;;;4.00;2.10;;;;;;;;;;5024289;28;20518;-62
2021/11/27 13:05:43;;;;;;;3.75;2.20;;;;;;;;;;5027070;28;20021;-63
2021/11/27 13:08:09;;;;;;;2.95;1.70;;;;;;;;;;5025428;28;20045;-61
2021/11/27 13:10:45;;;;;;;2.70;1.50;;;;;;;;;;5024464;28;20160;-63
2021/11/27 13:13:16;;;;;;;3.13;1.80;;;;;;;;;;5023919;28;20389;-62
2021/11/27 13:15:41;;;;;;;2.58;1.80;;;;;;;;;;5026111;28;20354;-61
2021/11/27 13:18:11;;;;;;;3.50;1.80;;;;;;;;;;5024298;28;20032;-63
2021/11/27 13:20:53;;;;;;;5.50;2.10;;;;;;;;;;5027543;28;20033;-61
2021/11/27 13:23:20;;;;;;;5.47;2.38;;;;;;;;;;5027744;28;20066;-62
2021/11/27 13:25:47;;;;;;;2.33;1.58;;;;;;;;;;5019800;28;20018;-61
2021/11/27 13:28:31;;;;;;;3.13;1.60;;;;;;;;;;5027595;28;20028;-62
2021/11/27 13:30:58;;;;;;;5.63;1.83;;;;;;;;;;5025532;28;20033;-62
2021/11/27 13:33:23;;;;;;;3.65;1.90;;;;;;;;;;5027539;28;20060;-63
2021/11/27 13:35:49;;;;;;;4.00;1.80;;;;;;;;;;5025098;28;20022;-63
2021/11/27 13:38:24;;;;;;;2.47;1.67;;;;;;;;;;5027937;28;20033;-61
2021/11/27 13:40:49;;;;;;;5.13;2.03;;;;;;;;;;5023352;28;20442;-62
2021/11/27 13:43:20;;;;;;;7.88;2.08;;;;;;;;;;5027749;28;20044;-64
2021/11/27 13:45:46;;;;;;;4.43;1.63;;;;;;;;;;5027366;28;20037;-62
2021/11/27 13:48:11;;;;;;;3.72;1.50;;;;;;;;;;5036117;28;20029;-64
2021/11/27 13:50:47;;;;;;;5.07;1.98;;;;;;;;;;5030523;28;20099;-63
2021/11/27 13:53:13;;;;;;;3.47;1.80;;;;;;;;;;5021327;28;20036;-62
2021/11/27 13:55:42;;;;;;;3.50;2.00;;;;;;;;;;5021474;28;20106;-64
2021/11/27 13:58:12;;;;;;;4.53;1.95;;;;;;;;;;5026081;28;20089;-62
2021/11/27 14:00:38;;;;;;;4.32;1.83;;;;;;;;;;5022120;28;20532;-63
2021/11/27 14:03:04;;;;;;;4.03;1.80;;;;;;;;;;5026014;28;20112;-64
2021/11/27 14:05:30;;;;;;;3.78;1.80;;;;;;;;;;5023936;28;20037;-62
2021/11/27 14:07:56;;;;;;;4.22;2.20;;;;;;;;;;5020144;28;20104;-63
2021/11/27 14:10:23;;;;;;;8.55;2.35;;;;;;;;;;5024582;28;20037;-62
2021/11/27 14:12:50;;;;;;;4.38;1.90;;;;;;;;;;5022371;28;20029;-63
2021/11/27 14:15:20;;;;;;;4.05;1.70;;;;;;;;;;5023340;28;20021;-62
2021/11/27 14:18:04;;;;;;;5.55;1.88;;;;;;;;;;5025823;28;20116;-64
2021/11/27 14:20:35;;;;;;;3.33;1.50;;;;;;;;;;5021142;28;20536;-61
2021/11/27 14:23:00;;;;;;;4.05;1.80;;;;;;;;;;5028247;28;20334;-63
2021/11/27 14:25:31;;;;;;;4.25;2.13;;;;;;;;;;5027880;28;20032;-61
2021/11/27 14:28:00;;;;;;;3.78;1.50;;;;;;;;;;5024247;28;20034;-63
2021/11/27 14:30:28;;;;;;;3.92;1.55;;;;;;;;;;5020383;28;20025;-63
2021/11/27 14:33:12;;;;;;;2.47;1.40;;;;;;;;;;5031598;28;20044;-63
2021/11/27 14:35:37;;;;;;;3.58;1.73;;;;;;;;;;5029501;28;20119;-61
2021/11/27 14:38:03;;;;;;;3.65;1.40;;;;;;;;;;5026197;28;20029;-63
2021/11/27 14:40:28;;;;;;;2.65;1.48;;;;;;;;;;5023509;28;20469;-62